Historique des mesures à Cassis (13260), France
Quotidien Résumé Aout 25, 2017 Unités:  Métrique    US   Métrique/US
« Précédent (Jour)
Suivant (Jour) »
Quotidien Hebdomadaire Mensuel Annuel Période au choix
  Maximum: Minimum: Moyenne:
Température: TemperatureC °C 19.9 °C 23.3 °C
Point de rosée: DewpointC °C 16.0 °C 18.3 °C
Humidité: Humidity % 58 % 70 %
Vitesse du vent: 0 km/h 0 km/h 2.9 km/h
Rafales: 0 km/h - -
Vent:- - SSW
Pression: PressurehPa hPa 1014.1 hPa -
Précipitations: 0.0 mm    
Historical Graphs
 
 
Mesures pour : Aout 25, 2017
Heure Temperature Point de rosée Pression Vent Vitesse du vent Rafales Humidité Pluie (par heure) Conditions
TemperatureC °C DewpointC °C PressurehPa hPa Calm     Humidity % HourlyPrecipMM mm SoftwareType W/m2
00:11 22.8 °C 17.9 °C 1015.1 hPa Calm     74 % 0.0 mm open2300-1.11 W/m2
01:11 22.1 °C 17.4 °C 1014.8 hPa Calm     75 % 0.0 mm open2300-1.11 W/m2
02:11 21.6 °C 17.2 °C 1015.1 hPa Calm     76 % 0.0 mm open2300-1.11 W/m2
03:11 21.3 °C 17.1 °C 1015.1 hPa Calm     77 % 0.0 mm open2300-1.11 W/m2
04:11 20.9 °C 16.9 °C 1014.8 hPa Calm     78 % 0.0 mm open2300-1.11 W/m2
05:11 20.4 °C 16.7 °C 1014.4 hPa Calm     79 % 0.0 mm open2300-1.11 W/m2
06:11 20.2 °C 16.5 °C 1014.4 hPa NNE 2.3 km/h 2.3 km/h 79 % 0.0 mm open2300-1.11 W/m2
07:11 19.9 °C 16.0 °C 1014.8 hPa Calm     78 % 0.0 mm open2300-1.11 W/m2
08:11 21.4 °C 17.8 °C 1015.1 hPa Calm     80 % 0.0 mm open2300-1.11 W/m2
09:11 22.8 °C 19.0 °C 1015.1 hPa SSE 9.8 km/h 9.8 km/h 79 % 0.0 mm open2300-1.11 W/m2
10:11 23.9 °C 18.3 °C 1015.5 hPa SSE 4.2 km/h 4.2 km/h 71 % 0.0 mm open2300-1.11 W/m2
11:11 27.3 °C 18.3 °C 1015.5 hPa ESE 5.1 km/h 7.6 km/h 58 % 0.0 mm open2300-1.11 W/m2
12:11 29.1 °C 20.3 °C 1015.8 hPa South 5.1 km/h 8 km/h 59 % 0.0 mm open2300-1.11 W/m2
14:11 28.6 °C 21.6 °C 1015.5 hPa West 6.4 km/h 7.6 km/h 66 % 0.0 mm open2300-1.11 W/m2
15:11 28.5 °C 21.8 °C 1015.5 hPa WSW 10.9 km/h 22 km/h 67 % 0.0 mm open2300-1.11 W/m2
16:11 28.2 °C 21.4 °C 1015.1 hPa South 2.9 km/h 24.3 km/h 67 % 0.0 mm open2300-1.11 W/m2
17:11 27.9 °C 21.7 °C 1015.1 hPa WSW 6.9 km/h 11.6 km/h 69 % 0.0 mm open2300-1.11 W/m2
18:11 27.2 °C 21.5 °C 1014.8 hPa WNW 9.3 km/h 11.6 km/h 71 % 0.0 mm open2300-1.11 W/m2
19:11 26.6 °C 21.2 °C 1014.1 hPa West 8 km/h 8 km/h 72 % 0.0 mm open2300-1.11 W/m2
20:11 25.6 °C 20.6 °C 1014.1 hPa Calm   4.7 km/h 74 % 0.0 mm open2300-1.11 W/m2
21:11 24.8 °C 20.3 °C 1014.4 hPa Calm     76 % 0.0 mm open2300-1.11 W/m2
22:11 24.4 °C 19.9 °C 1014.4 hPa Calm     76 % 0.0 mm open2300-1.11 W/m2
23:11 23.5 °C 19.5 °C 1014.8 hPa Calm     78 % 0.0 mm open2300-1.11 W/m2
Observations météo à CASSIS
WU-History script by Weather Underground - 1 mb